Atlanta, Georgia
Traffic Map
Current Weather Conditions
Atlanta, Georgia
Few Clouds
Few Clouds
39°
Feels Like: 32°
Wind Chill: 32° Ceiling: Unl
Heat Index: 39° Visibility: 10mi
Dew Point: 26° Wind: 12mph
Humidity: 60% Direction: 330° (NNW)
Pressure: 30.1in Gusts: 0mph
Raw Report DataKATL 160352Z 33010KT 10SM FEW250 04/M03 A3010 RMK AO2 SLP199 T00391033
Traffic Incident Summary
Active as of:
Severity:
Category:
InformationThere was an issue retrieving the traffic information for this location. Please try a different location or try again shortly.
Advertisements
At Last! Intellicast now available for iPhone and Android